KBED/BED METAR and TAF weather

Enter ICAO airport designator
Station Type Date Time Source
KBED METAR 2019/12/07 09:51 UTC NOAA

KBED 070951Z AUTO 30005KT 10SM OVC031 M04/M08 A3019 RMK AO2 SLP239 T10441083


Station Type Date Time Source
KBED Decoded METAR 2019/12/07 09:51 UTC NOAA

BEDFORD HANSCOM FIELD, MA, United States (KBED) 42-28N 071-18W 50M
Dec 07, 2019 - 04:51 AM EST / 2019.12.07 0951 UTC
Wind: from the WNW (300 degrees) at 6 MPH (5 KT):0
Visibility: 10 mile(s):0
Sky conditions: overcast
Temperature: 24.1 F (-4.4 C)
Windchill: 17 F (-8 C):1
Dew Point: 17.1 F (-8.3 C)
Relative Humidity: 74%
Pressure (altimeter): 30.19 in. Hg (1022 hPa)
ob: KBED 070951Z AUTO 30005KT 10SM OVC031 M04/M08 A3019 RMK AO2 SLP239 T10441083
cycle: 10

Station Type Date Time Source
KBED TAF 2019/12/07 09:28 UTC NOAA

TAF
AMD KBED 070926Z 0709/0806 31008KT P6SM BKN030
FM071400 30010G16KT P6SM SKC
FM072100 30005KT P6SM SKC
FM072300 30004KT P6SM SKC
FM080300 00000KT P6SM SKC

Example: see airport list